createdAt,value
2019-02-12T00:00:18.716Z,1.00
2019-02-12T00:02:47.126Z,0.93
2019-02-12T00:05:15.579Z,1.23
2019-02-12T00:07:43.997Z,1.37
2019-02-12T00:10:12.576Z,1.23
2019-02-12T00:12:40.996Z,1.17
2019-02-12T00:15:09.501Z,0.73
2019-02-12T00:17:37.943Z,1.70
2019-02-12T00:20:07.505Z,0.70
2019-02-12T00:22:35.924Z,0.70
2019-02-12T00:25:06.337Z,1.10
2019-02-12T00:27:34.763Z,1.10
2019-02-12T00:30:03.644Z,1.20
2019-02-12T00:32:32.085Z,0.80
2019-02-12T00:35:00.507Z,1.13
2019-02-12T00:37:28.964Z,1.10
2019-02-12T00:39:57.393Z,0.90
2019-02-12T00:42:25.843Z,1.00
2019-02-12T00:44:54.254Z,1.27
2019-02-12T00:47:22.698Z,1.30
2019-02-12T00:49:51.112Z,1.17
2019-02-12T00:52:19.559Z,1.10
2019-02-12T00:54:47.986Z,0.90
2019-02-12T00:57:16.421Z,1.00
2019-02-12T00:59:44.840Z,0.90
2019-02-12T01:02:13.359Z,1.00
2019-02-12T01:04:41.771Z,1.00
2019-02-12T01:07:10.212Z,1.17
2019-02-12T01:09:38.631Z,0.93
2019-02-12T01:12:07.072Z,1.10
2019-02-12T01:14:35.567Z,1.23
2019-02-12T01:17:04.007Z,1.13
2019-02-12T01:19:32.427Z,1.90
2019-02-12T01:22:00.864Z,3.67
2019-02-12T01:24:29.277Z,1.03
2019-02-12T01:26:57.751Z,2.20
2019-02-12T01:29:26.144Z,2.87
2019-02-12T01:31:54.599Z,1.40
2019-02-12T01:34:23.010Z,3.93
2019-02-12T01:36:51.449Z,1.03
2019-02-12T01:39:19.933Z,1.00
2019-02-12T01:41:48.381Z,1.07
2019-02-12T01:44:16.797Z,1.00
2019-02-12T01:46:45.314Z,2.03
2019-02-12T01:49:13.729Z,3.10
2019-02-12T01:51:42.169Z,1.20
2019-02-12T01:54:10.586Z,0.90
2019-02-12T01:56:39.042Z,2.40
2019-02-12T01:59:07.460Z,1.30
2019-02-12T02:01:35.897Z,1.00
2019-02-12T02:04:04.311Z,1.70
2019-02-12T02:06:32.759Z,1.83
2019-02-12T02:09:01.174Z,2.50
2019-02-12T02:11:29.614Z,2.80
2019-02-12T02:13:58.030Z,1.30
2019-02-12T02:16:26.452Z,1.57
2019-02-12T02:18:54.894Z,1.17
2019-02-12T02:21:23.308Z,1.43
2019-02-12T02:23:51.746Z,0.93
2019-02-12T02:26:20.154Z,1.43
2019-02-12T02:28:48.601Z,0.90
2019-02-12T02:31:17.012Z,2.00
2019-02-12T02:33:45.447Z,1.03
2019-02-12T02:36:13.867Z,1.83
2019-02-12T02:38:42.379Z,1.80
2019-02-12T02:41:10.795Z,1.60
2019-02-12T02:43:39.241Z,2.47
2019-02-12T02:46:07.655Z,1.87
2019-02-12T02:48:36.097Z,1.43
2019-02-12T02:51:04.516Z,2.00
2019-02-12T02:53:32.964Z,0.83
2019-02-12T02:56:01.378Z,1.00
2019-02-12T02:58:29.825Z,0.60
2019-02-12T03:00:58.236Z,0.60
2019-02-12T03:03:26.678Z,0.80
2019-02-12T03:05:55.097Z,0.53
2019-02-12T03:08:23.548Z,0.73
2019-02-12T03:10:52.399Z,1.17
2019-02-12T03:13:21.003Z,0.60
2019-02-12T03:15:49.419Z,0.70
2019-02-12T03:18:17.864Z,0.50
2019-02-12T03:20:46.290Z,0.80
2019-02-12T03:23:14.731Z,1.00
2019-02-12T03:25:43.141Z,1.90
2019-02-12T03:28:11.600Z,1.50
2019-02-12T03:30:40.103Z,1.10
2019-02-12T03:33:08.541Z,2.43
2019-02-12T03:35:36.943Z,0.90
2019-02-12T03:38:05.379Z,0.90
2019-02-12T03:40:33.795Z,1.03
2019-02-12T03:43:02.242Z,0.90
2019-02-12T03:45:30.659Z,0.97
2019-02-12T03:47:59.096Z,0.87
2019-02-12T03:50:27.520Z,1.30
2019-02-12T03:52:55.969Z,1.30
2019-02-12T03:55:24.381Z,0.70
2019-02-12T03:57:52.852Z,1.20
2019-02-12T04:00:21.271Z,0.70
2019-02-12T04:03:06.727Z,1.00
2019-02-12T04:05:36.689Z,1.30
2019-02-12T04:08:05.339Z,1.47
2019-02-12T04:10:33.786Z,0.63
2019-02-12T04:13:02.273Z,0.80
2019-02-12T04:15:30.826Z,1.73
2019-02-12T04:17:59.310Z,0.70
2019-02-12T04:20:27.753Z,0.87
2019-02-12T04:22:56.159Z,0.77
2019-02-12T04:25:24.613Z,0.90
2019-02-12T04:27:55.281Z,1.47
2019-02-12T04:30:23.191Z,1.13
2019-02-12T04:32:51.605Z,1.50
2019-02-12T04:35:20.058Z,1.00
2019-02-12T04:37:48.477Z,1.57
2019-02-12T04:40:16.987Z,1.40
2019-02-12T04:42:45.401Z,0.87
2019-02-12T04:45:13.852Z,2.20
2019-02-12T04:47:42.263Z,1.10
2019-02-12T04:50:15.431Z,0.90
2019-02-12T04:52:43.858Z,1.03
2019-02-12T04:55:12.757Z,0.60
2019-02-12T04:57:41.178Z,1.00
2019-02-12T05:00:12.925Z,0.90
2019-02-12T05:02:41.337Z,0.80
2019-02-12T05:05:10.662Z,1.40
2019-02-12T05:07:39.186Z,3.70
2019-02-12T05:10:19.767Z,1.50
2019-02-12T05:12:48.178Z,1.07
2019-02-12T05:15:16.627Z,0.60
2019-02-12T05:17:45.046Z,1.00
2019-02-12T05:20:14.632Z,0.70
2019-02-12T05:22:43.989Z,1.40
2019-02-12T05:25:13.105Z,1.07
2019-02-12T05:27:41.537Z,0.60
2019-02-12T05:30:12.003Z,0.60
2019-02-12T05:32:40.415Z,0.70
2019-02-12T05:35:08.934Z,0.83
2019-02-12T05:37:37.345Z,0.77
2019-02-12T05:40:10.470Z,0.60
2019-02-12T05:42:38.875Z,0.70
2019-02-12T05:45:10.251Z,1.23
2019-02-12T05:47:38.663Z,0.90
2019-02-12T05:50:13.080Z,0.70
2019-02-12T05:52:41.512Z,1.40
2019-02-12T05:55:10.084Z,1.10
2019-02-12T05:57:38.517Z,0.87
2019-02-12T06:00:17.883Z,0.73
2019-02-12T06:02:46.316Z,0.50
2019-02-12T06:05:25.836Z,0.90
2019-02-12T06:07:54.276Z,0.63
2019-02-12T06:10:22.854Z,0.90
2019-02-12T06:12:51.270Z,0.60
2019-02-12T06:15:19.710Z,0.70
2019-02-12T06:17:48.200Z,0.80
2019-02-12T06:20:16.635Z,0.90
2019-02-12T06:22:45.045Z,1.00
2019-02-12T06:25:13.488Z,0.90
2019-02-12T06:27:41.909Z,2.40
2019-02-12T06:30:11.025Z,3.60
2019-02-12T06:32:39.443Z,3.00
2019-02-12T06:35:09.438Z,1.20
2019-02-12T06:37:37.925Z,1.10
2019-02-12T06:40:08.982Z,1.00
2019-02-12T06:42:37.446Z,1.23
2019-02-12T06:45:10.717Z,1.30
2019-02-12T06:47:39.161Z,1.03
2019-02-12T06:50:10.876Z,1.17
2019-02-12T06:52:39.325Z,1.03
2019-02-12T06:55:09.581Z,1.37
2019-02-12T06:57:38.093Z,1.07
2019-02-12T07:00:10.015Z,2.20
2019-02-12T07:03:09.456Z,1.67
2019-02-12T07:05:40.237Z,1.70
2019-02-12T07:08:34.280Z,1.67
2019-02-12T07:11:15.138Z,2.67
2019-02-12T07:14:04.626Z,1.47
2019-02-12T07:16:39.202Z,1.60
2019-02-12T07:19:16.742Z,2.10
2019-02-12T07:21:51.348Z,1.53
2019-02-12T07:24:35.418Z,3.90
2019-02-12T07:27:16.657Z,1.73
2019-02-12T07:30:07.848Z,4.80
2019-02-12T07:32:45.033Z,1.83
2019-02-12T07:35:33.047Z,2.80
2019-02-12T07:38:07.333Z,1.33
2019-02-12T07:40:38.922Z,1.43
2019-02-12T07:43:16.652Z,1.77
2019-02-12T07:45:51.263Z,3.20
2019-02-12T07:48:28.626Z,1.20
2019-02-12T07:51:00.219Z,1.07
2019-02-12T07:53:58.562Z,1.17
2019-02-12T07:56:30.176Z,1.03
2019-02-12T07:59:07.470Z,1.57
2019-02-12T08:01:51.124Z,0.80
2019-02-12T08:04:28.447Z,0.80
2019-02-12T08:07:14.915Z,1.10
2019-02-12T08:09:52.504Z,1.00
2019-02-12T08:12:26.778Z,1.60
2019-02-12T08:15:04.003Z,0.87
2019-02-12T08:17:55.093Z,1.63
2019-02-12T08:20:38.848Z,1.43
2019-02-12T08:23:42.085Z,1.93
2019-02-12T08:26:16.292Z,1.67
2019-02-12T08:29:02.991Z,1.63
2019-02-12T08:31:49.596Z,1.93
2019-02-12T08:34:26.616Z,2.40
2019-02-12T08:37:07.305Z,1.50
2019-02-12T08:39:47.529Z,2.90
2019-02-12T08:42:38.349Z,1.23
2019-02-12T08:45:24.907Z,1.37
2019-02-12T08:48:13.300Z,1.10
2019-02-12T08:51:00.079Z,1.47
2019-02-12T08:54:06.625Z,1.70
2019-02-12T08:56:46.753Z,0.80
2019-02-12T08:59:27.127Z,1.77
2019-02-12T09:02:10.007Z,1.63
2019-02-12T09:04:50.133Z,0.80
2019-02-12T09:07:27.507Z,1.53
2019-02-12T09:10:11.249Z,1.10
2019-02-12T09:12:48.650Z,0.93
2019-02-12T09:15:45.602Z,0.90
2019-02-12T09:18:25.883Z,0.70
2019-02-12T09:21:03.405Z,1.40
2019-02-12T09:24:00.613Z,1.00
2019-02-12T09:27:04.613Z,2.50
2019-02-12T09:29:44.975Z,1.70
2019-02-12T09:32:33.020Z,1.20
2019-02-12T09:35:13.836Z,1.27
2019-02-12T09:38:06.649Z,1.70
2019-02-12T09:40:44.199Z,1.10
2019-02-12T09:43:48.911Z,1.33
2019-02-12T09:46:37.001Z,1.03
2019-02-12T09:49:20.310Z,1.10
2019-02-12T09:52:09.869Z,1.00
2019-02-12T09:54:54.173Z,0.87
2019-02-12T09:57:41.260Z,0.70
2019-02-12T10:00:21.976Z,0.60
2019-02-12T10:03:04.959Z,0.80
2019-02-12T10:05:42.319Z,0.53
2019-02-12T10:08:16.758Z,1.23
2019-02-12T10:11:06.515Z,1.03
2019-02-12T10:13:41.287Z,0.63
2019-02-12T10:16:15.954Z,0.90
2019-02-12T10:18:59.324Z,0.80
2019-02-12T10:21:30.936Z,0.70
2019-02-12T10:24:08.343Z,0.70
2019-02-12T10:26:39.972Z,0.90
2019-02-12T10:29:17.574Z,1.03
2019-02-12T10:31:45.049Z,0.70
2019-02-12T10:34:13.566Z,0.63
2019-02-12T10:36:42.044Z,1.73
2019-02-12T10:39:10.900Z,0.87
2019-02-12T10:41:39.342Z,0.77
2019-02-12T10:44:07.833Z,0.80
2019-02-12T10:46:36.274Z,0.77
2019-02-12T10:49:04.753Z,0.90
2019-02-12T10:51:33.191Z,0.63
2019-02-12T10:54:01.602Z,1.37
2019-02-12T10:56:30.005Z,0.90
2019-02-12T10:58:58.483Z,0.70
2019-02-12T11:01:26.938Z,1.30
2019-02-12T11:03:55.376Z,0.80
2019-02-12T11:06:23.853Z,0.80
2019-02-12T11:08:52.299Z,0.67
2019-02-12T11:11:20.785Z,0.90
2019-02-12T11:13:49.235Z,0.70
2019-02-12T11:16:17.643Z,0.83
2019-02-12T11:18:46.081Z,0.77
2019-02-12T11:21:14.498Z,0.60
2019-02-12T11:23:42.937Z,0.70
2019-02-12T11:26:11.421Z,1.03
2019-02-12T11:28:39.863Z,0.80
2019-02-12T11:31:08.345Z,0.80
2019-02-12T11:33:36.781Z,0.80
2019-02-12T11:36:05.268Z,0.80
2019-02-12T11:38:33.699Z,0.60
2019-02-12T11:41:02.120Z,0.90
2019-02-12T11:43:30.566Z,1.07
2019-02-12T11:45:58.980Z,1.33
2019-02-12T11:48:27.420Z,1.00
2019-02-12T11:50:55.829Z,0.63
2019-02-12T11:53:24.272Z,0.90
2019-02-12T11:55:52.688Z,0.50
2019-02-12T11:58:21.131Z,1.10
2019-02-12T12:00:51.186Z,0.87
2019-02-12T12:03:19.628Z,0.93
2019-02-12T12:05:48.065Z,1.20
2019-02-12T12:08:16.504Z,1.13
2019-02-12T12:10:44.920Z,0.70
2019-02-12T12:13:13.364Z,0.70
2019-02-12T12:15:41.774Z,0.70
2019-02-12T12:18:10.288Z,0.97
2019-02-12T12:20:38.776Z,0.50
2019-02-12T12:23:07.198Z,1.00
2019-02-12T12:25:35.635Z,1.07
2019-02-12T12:28:04.047Z,0.60
2019-02-12T12:30:32.482Z,0.70
2019-02-12T12:33:00.970Z,0.93
2019-02-12T12:35:29.409Z,0.93
2019-02-12T12:37:57.831Z,0.90
2019-02-12T12:40:26.273Z,0.90
2019-02-12T12:42:54.706Z,1.13
2019-02-12T12:45:23.233Z,0.70
2019-02-12T12:47:51.644Z,0.73
2019-02-12T12:50:20.095Z,0.90
2019-02-12T12:52:48.507Z,1.20
2019-02-12T12:55:16.938Z,1.13
2019-02-12T12:57:45.348Z,0.60
2019-02-12T13:00:17.665Z,0.97
2019-02-12T13:02:46.159Z,0.90
2019-02-12T13:05:14.744Z,1.20
2019-02-12T13:07:43.153Z,0.70
2019-02-12T13:10:14.298Z,1.00
2019-02-12T13:12:42.707Z,1.10
2019-02-12T13:15:13.965Z,1.00
2019-02-12T13:17:42.453Z,1.00
2019-02-12T13:20:16.685Z,1.50
2019-02-12T13:22:45.111Z,0.73
2019-02-12T13:25:13.544Z,1.30
2019-02-12T13:27:41.962Z,1.53
2019-02-12T13:30:20.125Z,1.37
2019-02-12T13:32:48.536Z,0.73
2019-02-12T13:35:16.969Z,0.90
2019-02-12T13:37:45.389Z,1.30
2019-02-12T13:40:14.307Z,1.27
2019-02-12T13:42:42.716Z,1.00
2019-02-12T13:45:13.476Z,1.60
2019-02-12T13:47:41.876Z,1.33
2019-02-12T13:50:11.755Z,0.73
2019-02-12T13:52:40.180Z,1.00
2019-02-12T13:55:16.965Z,0.90
2019-02-12T13:57:40.281Z,0.63
2019-02-12T14:00:17.264Z,1.13
2019-02-12T14:02:45.743Z,1.47
2019-02-12T14:05:22.669Z,1.23
2019-02-12T14:07:51.118Z,1.10
2019-02-12T14:10:19.540Z,1.00
2019-02-12T14:12:47.952Z,1.70
2019-02-12T14:15:16.468Z,0.77
2019-02-12T14:17:44.880Z,0.60
2019-02-12T14:20:17.604Z,1.07
2019-02-12T14:22:46.097Z,0.93
2019-02-12T14:25:15.582Z,0.80
2019-02-12T14:27:44.070Z,0.60
2019-02-12T14:30:17.565Z,1.00
2019-02-12T14:32:46.879Z,0.50
2019-02-12T14:35:15.391Z,0.77
2019-02-12T14:37:43.808Z,0.90
2019-02-12T14:40:16.596Z,1.43
2019-02-12T14:42:45.011Z,0.60
2019-02-12T14:45:17.825Z,0.70
2019-02-12T14:47:46.240Z,0.90
2019-02-12T14:50:16.997Z,0.80
2019-02-12T14:52:45.408Z,0.60
2019-02-12T14:55:13.823Z,0.83
2019-02-12T14:57:42.338Z,1.00
2019-02-12T15:00:16.824Z,0.50
2019-02-12T15:02:45.255Z,1.43
2019-02-12T15:05:13.829Z,1.07
2019-02-12T15:07:42.342Z,1.47
2019-02-12T15:10:12.400Z,0.80
2019-02-12T15:12:40.847Z,0.70
2019-02-12T15:15:10.298Z,1.03
2019-02-12T15:17:38.765Z,0.83
2019-02-12T15:20:11.633Z,1.10
2019-02-12T15:22:40.144Z,1.20
2019-02-12T15:25:12.321Z,0.90
2019-02-12T15:27:40.763Z,0.70
2019-02-12T15:30:17.117Z,0.53
2019-02-12T15:32:45.697Z,0.70
2019-02-12T15:35:14.477Z,0.80
2019-02-12T15:37:42.985Z,1.03
2019-02-12T15:40:19.495Z,0.60
2019-02-12T15:42:47.944Z,1.00
2019-02-12T15:45:19.257Z,1.33
2019-02-12T15:47:47.774Z,1.30
2019-02-12T15:50:16.183Z,1.00
2019-02-12T15:52:44.624Z,0.90
2019-02-12T15:55:13.992Z,1.00
2019-02-12T15:57:45.145Z,1.17
2019-02-12T16:00:15.693Z,1.10
2019-02-12T16:02:45.331Z,1.50
2019-02-12T16:05:14.210Z,1.60
2019-02-12T16:07:44.656Z,1.40
2019-02-12T16:10:22.041Z,1.70
2019-02-12T16:12:51.524Z,1.40
2019-02-12T16:15:22.389Z,1.33
2019-02-12T16:17:51.082Z,1.47
2019-02-12T16:20:19.503Z,1.73
2019-02-12T16:22:47.943Z,1.70
2019-02-12T16:25:16.353Z,1.67
2019-02-12T16:27:44.820Z,1.50
2019-02-12T16:30:15.677Z,1.60
2019-02-12T16:32:44.125Z,2.50
2019-02-12T16:35:14.378Z,2.77
2019-02-12T16:37:42.971Z,2.80
2019-02-12T16:40:13.241Z,2.10
2019-02-12T16:42:41.701Z,2.90
2019-02-12T16:45:21.561Z,2.93
2019-02-12T16:47:50.030Z,2.70
2019-02-12T16:50:18.476Z,2.90
2019-02-12T16:52:46.931Z,2.60
2019-02-12T16:55:15.417Z,3.07
2019-02-12T16:57:43.874Z,2.00
2019-02-12T17:00:14.749Z,1.70
2019-02-12T17:02:43.203Z,2.33
2019-02-12T17:05:13.466Z,1.90
2019-02-12T17:07:42.094Z,1.70
2019-02-12T17:10:10.821Z,1.50
2019-02-12T17:12:39.354Z,2.30
2019-02-12T17:15:12.436Z,2.77
2019-02-12T17:17:40.898Z,2.20
2019-02-12T17:20:15.007Z,1.93
2019-02-12T17:22:43.463Z,1.60
2019-02-12T17:25:11.906Z,1.93
2019-02-12T17:27:40.446Z,2.90
2019-02-12T17:30:11.722Z,2.03
2019-02-12T17:32:40.187Z,1.90
2019-02-12T17:35:09.452Z,2.30
2019-02-12T17:37:37.886Z,2.90
2019-02-12T17:40:09.455Z,3.57
2019-02-12T17:42:37.892Z,2.80
2019-02-12T17:45:09.899Z,1.87
2019-02-12T17:47:38.307Z,2.13
2019-02-12T17:50:09.492Z,2.27
2019-02-12T17:52:38.014Z,2.13
2019-02-12T17:55:08.219Z,1.90
2019-02-12T17:57:36.643Z,2.10
2019-02-12T18:00:12.260Z,2.00
2019-02-12T18:02:41.628Z,2.03
2019-02-12T18:05:10.312Z,1.67
2019-02-12T18:07:38.747Z,1.60
2019-02-12T18:10:09.643Z,2.03
2019-02-12T18:12:38.077Z,1.40
2019-02-12T18:15:11.758Z,1.80
2019-02-12T18:17:40.279Z,1.90
2019-02-12T18:20:10.966Z,2.90
2019-02-12T18:22:39.469Z,2.33
2019-02-12T18:25:09.959Z,2.60
2019-02-12T18:27:38.642Z,2.20
2019-02-12T18:30:10.184Z,1.90
2019-02-12T18:32:38.600Z,2.13
2019-02-12T18:35:08.290Z,2.07
2019-02-12T18:37:36.699Z,1.83
2019-02-12T18:40:13.269Z,1.70
2019-02-12T18:42:41.689Z,1.80
2019-02-12T18:45:24.830Z,1.60
2019-02-12T18:47:53.246Z,1.90
2019-02-12T18:50:21.765Z,1.77
2019-02-12T18:52:50.181Z,2.60
2019-02-12T18:55:18.622Z,2.10
2019-02-12T18:57:47.043Z,1.80
2019-02-12T19:00:20.415Z,2.20
2019-02-12T19:02:48.829Z,1.47
2019-02-12T19:05:17.341Z,1.60
2019-02-12T19:07:45.749Z,1.83
2019-02-12T19:10:15.843Z,1.83
2019-02-12T19:12:44.318Z,2.03
2019-02-12T19:15:20.660Z,1.90
2019-02-12T19:18:00.819Z,1.53
2019-02-12T19:20:29.270Z,1.50
2019-02-12T19:22:57.689Z,2.00
2019-02-12T19:25:26.129Z,1.67
2019-02-12T19:27:54.543Z,1.50
2019-02-12T19:30:22.994Z,1.50
2019-02-12T19:32:51.414Z,2.07
2019-02-12T19:35:19.868Z,1.50
2019-02-12T19:37:48.293Z,2.10
2019-02-12T19:40:16.906Z,1.83
2019-02-12T19:42:45.312Z,1.97
2019-02-12T19:45:15.272Z,2.10
2019-02-12T19:47:43.725Z,1.93
2019-02-12T19:50:12.403Z,2.60
2019-02-12T19:52:40.844Z,1.77
2019-02-12T19:55:10.003Z,2.20
2019-02-12T19:57:38.447Z,2.03
2019-02-12T20:00:16.599Z,2.40
2019-02-12T20:02:45.040Z,2.10
2019-02-12T20:05:13.605Z,2.30
2019-02-12T20:07:42.116Z,2.17
2019-02-12T20:10:11.988Z,2.53
2019-02-12T20:12:40.431Z,2.43
2019-02-12T20:15:16.633Z,2.67
2019-02-12T20:17:45.072Z,2.40
2019-02-12T20:20:13.926Z,2.50
2019-02-12T20:22:42.373Z,2.83
2019-02-12T20:25:11.659Z,2.73
2019-02-12T20:27:40.107Z,2.57
2019-02-12T20:30:16.716Z,2.90
2019-02-12T20:32:45.178Z,2.67
2019-02-12T20:35:16.310Z,3.07
2019-02-12T20:37:44.754Z,3.00
2019-02-12T20:40:14.219Z,3.50
2019-02-12T20:42:42.738Z,3.70
2019-02-12T20:45:16.140Z,3.60
2019-02-12T20:47:44.658Z,4.43
2019-02-12T20:50:15.019Z,3.73
2019-02-12T20:52:43.458Z,4.13
2019-02-12T20:55:11.871Z,4.40
2019-02-12T20:57:40.389Z,3.83
2019-02-12T21:00:17.428Z,4.83
2019-02-12T21:02:45.944Z,4.60
2019-02-12T21:05:15.803Z,4.80
2019-02-12T21:07:44.324Z,4.83
2019-02-12T21:10:15.754Z,6.13
2019-02-12T21:12:44.203Z,5.10
2019-02-12T21:15:23.675Z,5.67
2019-02-12T21:17:52.124Z,5.60
2019-02-12T21:20:20.545Z,7.03
2019-02-12T21:22:48.998Z,5.93
2019-02-12T21:25:17.595Z,6.30
2019-02-12T21:27:46.022Z,7.13
2019-02-12T21:30:20.282Z,7.13
2019-02-12T21:32:48.693Z,7.13
2019-02-12T21:35:17.147Z,7.70
2019-02-12T21:37:45.643Z,7.73
2019-02-12T21:40:27.166Z,7.73
2019-02-12T21:42:55.599Z,8.20
2019-02-12T21:45:24.042Z,8.43
2019-02-12T21:47:52.459Z,9.30
2019-02-12T21:50:20.972Z,9.73
2019-02-12T21:52:49.398Z,9.53
2019-02-12T21:55:22.222Z,8.50
2019-02-12T21:57:50.714Z,9.47
2019-02-12T22:00:22.854Z,9.23
2019-02-12T22:02:51.270Z,10.60
2019-02-12T22:05:19.896Z,11.90
2019-02-12T22:07:48.320Z,11.30
2019-02-12T22:10:28.494Z,11.23
2019-02-12T22:12:56.915Z,11.40
2019-02-12T22:15:25.363Z,10.47
2019-02-12T22:17:53.807Z,11.97
2019-02-12T22:20:25.235Z,12.50
2019-02-12T22:22:53.652Z,13.37
2019-02-12T22:25:22.106Z,13.70
2019-02-12T22:27:50.537Z,12.90
2019-02-12T22:30:24.049Z,13.93
2019-02-12T22:32:52.478Z,12.77
2019-02-12T22:35:20.926Z,14.13
2019-02-12T22:37:49.424Z,14.80
2019-02-12T22:40:18.646Z,13.13
2019-02-12T22:42:47.208Z,14.73
2019-02-12T22:45:23.686Z,14.70
2019-02-12T22:47:52.115Z,14.97
2019-02-12T22:50:20.604Z,13.90
2019-02-12T22:52:49.134Z,13.97
2019-02-12T22:55:17.553Z,15.40
2019-02-12T22:57:49.243Z,14.93
2019-02-12T23:00:47.305Z,15.90
2019-02-12T23:03:15.754Z,13.90
2019-02-12T23:05:44.198Z,15.47
2019-02-12T23:08:12.629Z,16.13
2019-02-12T23:10:41.051Z,14.63
2019-02-12T23:13:09.498Z,15.70
2019-02-12T23:15:37.989Z,17.30
2019-02-12T23:18:06.514Z,17.40
2019-02-12T23:20:34.933Z,16.27
2019-02-12T23:23:03.375Z,16.93
2019-02-12T23:25:31.802Z,16.17
2019-02-12T23:28:00.249Z,18.37
2019-02-12T23:30:28.666Z,16.77
2019-02-12T23:32:57.117Z,17.97
2019-02-12T23:35:25.547Z,16.90
2019-02-12T23:37:54.009Z,17.03
2019-02-12T23:40:22.428Z,17.20
2019-02-12T23:42:50.893Z,20.27
2019-02-12T23:45:19.321Z,19.60
2019-02-12T23:47:47.766Z,17.50
2019-02-12T23:50:16.199Z,19.87
2019-02-12T23:52:44.657Z,18.10
2019-02-12T23:55:13.158Z,18.47
2019-02-12T23:57:41.604Z,18.97
